Main page
METAR-TAF:

METAR-TAF

Airports :

Asturias Airport

Avilés, Spain

latitude: 43-33N, longitude: 006-02W, elevation: 127 m

Current weather observation

The report was made 21 minutes ago, at 22:00 UTC
Wind 5 kt from the Northwest, varying between West and North/Northwest
Temperature 15°C
Humidity 82%
Pressure 1017 hPa
Visibility 10 km or more
Overcast at a height of 2800 ft

METAR: LEAS 052200Z AUTO 31005KT 280V340 9999 OVC028 15/12 Q1017

Time: 00:21 (22:21 UTC)

Forecast

The report was made 2 hours and 21 minutes ago, at 20:00 UTC
Forecast valid from 05 at 21 UTC to 06 at 21 UTC
Wind 5 kt from variable directions
Visibility 10 km or more
Scattered clouds at a height of 1000 ft
Broken clouds at a height of 2000 ft
Probability 30% :
Temporary
from 06 at 02 UTC to 06 at 08 UTC
Wind 10 kt from the Southwest
Temporary
from 06 at 08 UTC to 06 at 18 UTC
Wind 10 kt from the West/Northwest

TAF: LEAS 052000Z 0521/0621 VRB05KT 9999 SCT010 BKN020 TX21/0613Z TN11/0606Z PROB30 TEMPO 0602/0608 22010KT TEMPO 0608/0618 29010KT

Weather observations and forecasts of more than 4000 airports (METAR and TAF reports).

The available stations are represented by yellow and red dots on the map.

Hover mouse over dot to see the name of the station.

Then click to see weather observations and forecasts.

To change the map : click on the green buttons with a black cross to zoom in, on the green button with a dash to zoom out, or on the green arrows for adjacent maps.


METAR-TAF: